sensor_id;sensor_type;location;lat;lon;timestamp;P1;durP1;ratioP1;P2;durP2;ratioP2
33190;SDS011;19554;42.652;23.364;2022-09-28T00:01:45;7.60;;;5.50;;
33190;SDS011;19554;42.652;23.364;2022-09-28T00:04:11;7.25;;;4.95;;
33190;SDS011;19554;42.652;23.364;2022-09-28T00:06:36;7.50;;;4.90;;
33190;SDS011;19554;42.652;23.364;2022-09-28T00:09:02;5.57;;;4.75;;
33190;SDS011;19554;42.652;23.364;2022-09-28T00:11:28;9.55;;;4.57;;
33190;SDS011;19554;42.652;23.364;2022-09-28T00:13:55;9.82;;;4.95;;
33190;SDS011;19554;42.652;23.364;2022-09-28T00:16:28;8.15;;;4.38;;
33190;SDS011;19554;42.652;23.364;2022-09-28T00:18:55;9.15;;;4.90;;
33190;SDS011;19554;42.652;23.364;2022-09-28T00:21:22;8.68;;;4.70;;
33190;SDS011;19554;42.652;23.364;2022-09-28T00:23:53;9.35;;;4.50;;
33190;SDS011;19554;42.652;23.364;2022-09-28T00:29:06;15.93;;;5.05;;
33190;SDS011;19554;42.652;23.364;2022-09-28T00:31:37;8.45;;;4.63;;
33190;SDS011;19554;42.652;23.364;2022-09-28T00:34:02;8.50;;;4.63;;
33190;SDS011;19554;42.652;23.364;2022-09-28T00:36:30;10.43;;;4.82;;
33190;SDS011;19554;42.652;23.364;2022-09-28T00:38:57;7.68;;;5.05;;
33190;SDS011;19554;42.652;23.364;2022-09-28T00:41:24;7.03;;;4.13;;
33190;SDS011;19554;42.652;23.364;2022-09-28T00:43:50;6.97;;;4.50;;
33190;SDS011;19554;42.652;23.364;2022-09-28T00:46:29;6.00;;;4.15;;
33190;SDS011;19554;42.652;23.364;2022-09-28T00:49:02;7.15;;;4.50;;
33190;SDS011;19554;42.652;23.364;2022-09-28T00:51:35;12.77;;;4.70;;
33190;SDS011;19554;42.652;23.364;2022-09-28T00:54:05;6.60;;;4.88;;
33190;SDS011;19554;42.652;23.364;2022-09-28T00:56:32;9.55;;;5.47;;
33190;SDS011;19554;42.652;23.364;2022-09-28T00:59:01;7.95;;;5.78;;
33190;SDS011;19554;42.652;23.364;2022-09-28T01:01:28;7.65;;;4.97;;
33190;SDS011;19554;42.652;23.364;2022-09-28T01:03:54;7.90;;;4.65;;
33190;SDS011;19554;42.652;23.364;2022-09-28T01:06:23;8.70;;;5.13;;
33190;SDS011;19554;42.652;23.364;2022-09-28T01:08:53;7.32;;;4.78;;
33190;SDS011;19554;42.652;23.364;2022-09-28T01:11:22;12.30;;;4.88;;
33190;SDS011;19554;42.652;23.364;2022-09-28T01:13:49;8.98;;;4.28;;
33190;SDS011;19554;42.652;23.364;2022-09-28T01:16:18;9.23;;;4.85;;
33190;SDS011;19554;42.652;23.364;2022-09-28T01:19:32;4.32;;;3.90;;
33190;SDS011;19554;42.652;23.364;2022-09-28T01:22:24;8.55;;;3.72;;
33190;SDS011;19554;42.652;23.364;2022-09-28T01:25:10;5.68;;;3.00;;
33190;SDS011;19554;42.652;23.364;2022-09-28T01:30:20;7.25;;;3.45;;
33190;SDS011;19554;42.652;23.364;2022-09-28T01:35:20;10.27;;;3.40;;
33190;SDS011;19554;42.652;23.364;2022-09-28T01:37:56;6.90;;;3.33;;
33190;SDS011;19554;42.652;23.364;2022-09-28T01:40:26;5.88;;;3.40;;
33190;SDS011;19554;42.652;23.364;2022-09-28T01:42:56;10.45;;;3.80;;
33190;SDS011;19554;42.652;23.364;2022-09-28T01:45:28;5.25;;;3.67;;
33190;SDS011;19554;42.652;23.364;2022-09-28T01:48:00;4.68;;;3.30;;
33190;SDS011;19554;42.652;23.364;2022-09-28T01:50:29;4.10;;;3.08;;
33190;SDS011;19554;42.652;23.364;2022-09-28T01:55:34;7.57;;;3.85;;
33190;SDS011;19554;42.652;23.364;2022-09-28T01:58:04;8.77;;;3.15;;
33190;SDS011;19554;42.652;23.364;2022-09-28T02:00:33;7.65;;;3.95;;
33190;SDS011;19554;42.652;23.364;2022-09-28T02:03:08;5.95;;;3.60;;
33190;SDS011;19554;42.652;23.364;2022-09-28T02:05:41;12.80;;;4.05;;
33190;SDS011;19554;42.652;23.364;2022-09-28T02:11:19;7.57;;;4.57;;
33190;SDS011;19554;42.652;23.364;2022-09-28T02:13:49;9.07;;;4.80;;
33190;SDS011;19554;42.652;23.364;2022-09-28T02:16:35;9.07;;;4.47;;
33190;SDS011;19554;42.652;23.364;2022-09-28T02:19:04;6.00;;;4.90;;
33190;SDS011;19554;42.652;23.364;2022-09-28T02:21:37;9.85;;;4.97;;
33190;SDS011;19554;42.652;23.364;2022-09-28T02:26:52;14.10;;;5.05;;
33190;SDS011;19554;42.652;23.364;2022-09-28T02:29:21;6.40;;;4.47;;
33190;SDS011;19554;42.652;23.364;2022-09-28T02:31:47;15.48;;;4.93;;
33190;SDS011;19554;42.652;23.364;2022-09-28T02:34:14;7.25;;;4.95;;
33190;SDS011;19554;42.652;23.364;2022-09-28T02:36:40;10.70;;;4.00;;
33190;SDS011;19554;42.652;23.364;2022-09-28T02:39:11;7.38;;;4.50;;
33190;SDS011;19554;42.652;23.364;2022-09-28T02:54:58;6.28;;;4.60;;
33190;SDS011;19554;42.652;23.364;2022-09-28T03:03:47;14.80;;;5.85;;
33190;SDS011;19554;42.652;23.364;2022-09-28T03:09:27;10.82;;;6.70;;
33190;SDS011;19554;42.652;23.364;2022-09-28T03:12:09;9.77;;;6.50;;
33190;SDS011;19554;42.652;23.364;2022-09-28T03:14:38;8.45;;;5.68;;
33190;SDS011;19554;42.652;23.364;2022-09-28T03:17:03;10.30;;;6.38;;
33190;SDS011;19554;42.652;23.364;2022-09-28T03:19:30;9.55;;;6.20;;
33190;SDS011;19554;42.652;23.364;2022-09-28T03:21:57;9.13;;;6.03;;
33190;SDS011;19554;42.652;23.364;2022-09-28T03:24:23;9.00;;;5.85;;
33190;SDS011;19554;42.652;23.364;2022-09-28T03:26:49;13.30;;;6.45;;
33190;SDS011;19554;42.652;23.364;2022-09-28T03:29:15;9.50;;;5.82;;
33190;SDS011;19554;42.652;23.364;2022-09-28T03:31:40;8.95;;;5.63;;
33190;SDS011;19554;42.652;23.364;2022-09-28T03:34:05;7.85;;;5.40;;
33190;SDS011;19554;42.652;23.364;2022-09-28T03:36:31;10.77;;;6.50;;
33190;SDS011;19554;42.652;23.364;2022-09-28T03:38:56;11.82;;;5.93;;
33190;SDS011;19554;42.652;23.364;2022-09-28T03:41:23;9.48;;;5.82;;
33190;SDS011;19554;42.652;23.364;2022-09-28T03:43:49;12.88;;;6.07;;
33190;SDS011;19554;42.652;23.364;2022-09-28T03:46:14;14.13;;;6.07;;
33190;SDS011;19554;42.652;23.364;2022-09-28T03:48:39;12.50;;;6.35;;
33190;SDS011;19554;42.652;23.364;2022-09-28T03:51:05;10.32;;;6.95;;
33190;SDS011;19554;42.652;23.364;2022-09-28T03:53:33;18.05;;;8.00;;
33190;SDS011;19554;42.652;23.364;2022-09-28T03:56:17;14.75;;;7.43;;
33190;SDS011;19554;42.652;23.364;2022-09-28T03:58:42;10.43;;;6.10;;
33190;SDS011;19554;42.652;23.364;2022-09-28T04:01:09;8.07;;;5.90;;
33190;SDS011;19554;42.652;23.364;2022-09-28T04:03:37;9.73;;;5.70;;
33190;SDS011;19554;42.652;23.364;2022-09-28T04:06:02;11.88;;;6.93;;
33190;SDS011;19554;42.652;23.364;2022-09-28T04:08:28;16.27;;;6.90;;
33190;SDS011;19554;42.652;23.364;2022-09-28T04:10:57;17.10;;;6.10;;
33190;SDS011;19554;42.652;23.364;2022-09-28T04:13:24;16.92;;;6.82;;
33190;SDS011;19554;42.652;23.364;2022-09-28T04:15:57;16.17;;;6.40;;
33190;SDS011;19554;42.652;23.364;2022-09-28T04:18:24;17.98;;;7.30;;
33190;SDS011;19554;42.652;23.364;2022-09-28T04:21:02;14.32;;;6.07;;
33190;SDS011;19554;42.652;23.364;2022-09-28T04:23:30;20.40;;;7.18;;
33190;SDS011;19554;42.652;23.364;2022-09-28T04:25:56;13.95;;;6.30;;
33190;SDS011;19554;42.652;23.364;2022-09-28T04:28:22;17.90;;;8.57;;
33190;SDS011;19554;42.652;23.364;2022-09-28T04:31:08;20.02;;;9.07;;
33190;SDS011;19554;42.652;23.364;2022-09-28T04:33:35;17.42;;;7.90;;
33190;SDS011;19554;42.652;23.364;2022-09-28T04:36:01;12.27;;;6.88;;
33190;SDS011;19554;42.652;23.364;2022-09-28T04:38:27;19.77;;;7.03;;
33190;SDS011;19554;42.652;23.364;2022-09-28T04:40:52;16.52;;;8.57;;
33190;SDS011;19554;42.652;23.364;2022-09-28T04:43:17;15.80;;;7.32;;
33190;SDS011;19554;42.652;23.364;2022-09-28T04:45:43;21.63;;;6.95;;
33190;SDS011;19554;42.652;23.364;2022-09-28T04:48:08;20.83;;;6.97;;
33190;SDS011;19554;42.652;23.364;2022-09-28T04:50:33;16.85;;;6.05;;
33190;SDS011;19554;42.652;23.364;2022-09-28T04:52:59;12.45;;;5.82;;
33190;SDS011;19554;42.652;23.364;2022-09-28T04:55:25;14.93;;;6.20;;
33190;SDS011;19554;42.652;23.364;2022-09-28T04:57:56;30.20;;;6.20;;
33190;SDS011;19554;42.652;23.364;2022-09-28T05:00:22;13.45;;;6.70;;
33190;SDS011;19554;42.652;23.364;2022-09-28T05:02:48;14.98;;;6.68;;
33190;SDS011;19554;42.652;23.364;2022-09-28T05:05:13;27.13;;;11.02;;
33190;SDS011;19554;42.652;23.364;2022-09-28T05:07:38;17.73;;;7.45;;
33190;SDS011;19554;42.652;23.364;2022-09-28T05:10:06;20.55;;;7.65;;
33190;SDS011;19554;42.652;23.364;2022-09-28T05:12:32;17.38;;;7.88;;
33190;SDS011;19554;42.652;23.364;2022-09-28T05:14:57;18.70;;;7.10;;
33190;SDS011;19554;42.652;23.364;2022-09-28T05:17:22;18.13;;;6.85;;
33190;SDS011;19554;42.652;23.364;2022-09-28T05:19:48;21.92;;;7.10;;
33190;SDS011;19554;42.652;23.364;2022-09-28T05:22:13;13.75;;;6.25;;
33190;SDS011;19554;42.652;23.364;2022-09-28T05:24:39;15.40;;;5.18;;
33190;SDS011;19554;42.652;23.364;2022-09-28T05:27:05;18.55;;;5.95;;
33190;SDS011;19554;42.652;23.364;2022-09-28T05:29:31;17.92;;;6.03;;
33190;SDS011;19554;42.652;23.364;2022-09-28T05:31:56;14.48;;;7.13;;
33190;SDS011;19554;42.652;23.364;2022-09-28T05:34:21;16.17;;;5.93;;
33190;SDS011;19554;42.652;23.364;2022-09-28T05:36:47;16.08;;;6.72;;
33190;SDS011;19554;42.652;23.364;2022-09-28T05:39:12;17.00;;;7.82;;
33190;SDS011;19554;42.652;23.364;2022-09-28T05:41:38;16.40;;;8.35;;
33190;SDS011;19554;42.652;23.364;2022-09-28T05:44:03;20.77;;;9.95;;
33190;SDS011;19554;42.652;23.364;2022-09-28T05:46:29;10.93;;;7.90;;
33190;SDS011;19554;42.652;23.364;2022-09-28T05:48:54;18.88;;;10.13;;
33190;SDS011;19554;42.652;23.364;2022-09-28T05:51:19;22.05;;;11.40;;
33190;SDS011;19554;42.652;23.364;2022-09-28T05:53:45;20.10;;;9.10;;
33190;SDS011;19554;42.652;23.364;2022-09-28T05:56:10;19.60;;;10.13;;
33190;SDS011;19554;42.652;23.364;2022-09-28T05:58:36;20.27;;;13.23;;
33190;SDS011;19554;42.652;23.364;2022-09-28T06:01:01;20.23;;;10.90;;
33190;SDS011;19554;42.652;23.364;2022-09-28T06:03:27;15.40;;;11.35;;
33190;SDS011;19554;42.652;23.364;2022-09-28T06:05:52;16.92;;;9.80;;
33190;SDS011;19554;42.652;23.364;2022-09-28T06:08:18;19.58;;;9.70;;
33190;SDS011;19554;42.652;23.364;2022-09-28T06:10:43;16.17;;;9.55;;
33190;SDS011;19554;42.652;23.364;2022-09-28T06:13:09;17.80;;;10.13;;
33190;SDS011;19554;42.652;23.364;2022-09-28T06:15:36;16.80;;;9.40;;
33190;SDS011;19554;42.652;23.364;2022-09-28T06:20:30;24.23;;;11.40;;
33190;SDS011;19554;42.652;23.364;2022-09-28T06:22:58;14.27;;;10.23;;
33190;SDS011;19554;42.652;23.364;2022-09-28T06:25:23;17.08;;;11.23;;
33190;SDS011;19554;42.652;23.364;2022-09-28T06:28:10;20.95;;;12.48;;
33190;SDS011;19554;42.652;23.364;2022-09-28T06:30:38;22.27;;;14.40;;
33190;SDS011;19554;42.652;23.364;2022-09-28T06:33:05;18.83;;;13.20;;
33190;SDS011;19554;42.652;23.364;2022-09-28T06:35:32;22.65;;;15.48;;
33190;SDS011;19554;42.652;23.364;2022-09-28T06:37:58;29.35;;;17.40;;
33190;SDS011;19554;42.652;23.364;2022-09-28T06:40:24;28.98;;;17.98;;
33190;SDS011;19554;42.652;23.364;2022-09-28T06:42:53;29.40;;;18.02;;
33190;SDS011;19554;42.652;23.364;2022-09-28T06:45:23;27.92;;;18.80;;
33190;SDS011;19554;42.652;23.364;2022-09-28T06:47:54;28.80;;;18.85;;
33190;SDS011;19554;42.652;23.364;2022-09-28T06:50:20;33.25;;;19.15;;
33190;SDS011;19554;42.652;23.364;2022-09-28T06:52:48;29.15;;;19.20;;
33190;SDS011;19554;42.652;23.364;2022-09-28T06:55:15;29.30;;;19.73;;
33190;SDS011;19554;42.652;23.364;2022-09-28T06:57:40;32.58;;;20.35;;
33190;SDS011;19554;42.652;23.364;2022-09-28T07:00:06;35.83;;;21.58;;
33190;SDS011;19554;42.652;23.364;2022-09-28T07:02:31;32.63;;;20.58;;
33190;SDS011;19554;42.652;23.364;2022-09-28T07:04:57;34.03;;;20.67;;
33190;SDS011;19554;42.652;23.364;2022-09-28T07:07:23;31.60;;;19.35;;
33190;SDS011;19554;42.652;23.364;2022-09-28T07:09:52;40.78;;;23.55;;
33190;SDS011;19554;42.652;23.364;2022-09-28T07:12:18;35.95;;;20.23;;
33190;SDS011;19554;42.652;23.364;2022-09-28T07:14:44;35.88;;;20.38;;
33190;SDS011;19554;42.652;23.364;2022-09-28T07:17:09;36.90;;;20.70;;
33190;SDS011;19554;42.652;23.364;2022-09-28T07:19:35;33.92;;;20.85;;
33190;SDS011;19554;42.652;23.364;2022-09-28T07:22:00;32.60;;;20.27;;
33190;SDS011;19554;42.652;23.364;2022-09-28T07:24:26;36.58;;;19.83;;
33190;SDS011;19554;42.652;23.364;2022-09-28T07:26:53;34.08;;;18.85;;
33190;SDS011;19554;42.652;23.364;2022-09-28T07:29:19;35.13;;;18.83;;
33190;SDS011;19554;42.652;23.364;2022-09-28T07:31:44;29.35;;;18.25;;
33190;SDS011;19554;42.652;23.364;2022-09-28T07:34:10;34.22;;;17.52;;
33190;SDS011;19554;42.652;23.364;2022-09-28T07:36:35;30.13;;;16.20;;
33190;SDS011;19554;42.652;23.364;2022-09-28T07:39:01;25.55;;;15.30;;
33190;SDS011;19554;42.652;23.364;2022-09-28T07:41:27;28.67;;;16.17;;
33190;SDS011;19554;42.652;23.364;2022-09-28T07:44:03;27.50;;;15.85;;
33190;SDS011;19554;42.652;23.364;2022-09-28T07:46:32;23.17;;;15.07;;
33190;SDS011;19554;42.652;23.364;2022-09-28T07:48:58;23.45;;;14.20;;
33190;SDS011;19554;42.652;23.364;2022-09-28T07:51:23;25.80;;;16.15;;
33190;SDS011;19554;42.652;23.364;2022-09-28T07:53:48;21.00;;;14.13;;
33190;SDS011;19554;42.652;23.364;2022-09-28T07:56:14;26.77;;;14.98;;
33190;SDS011;19554;42.652;23.364;2022-09-28T07:58:41;19.95;;;13.43;;
33190;SDS011;19554;42.652;23.364;2022-09-28T08:01:08;23.70;;;13.48;;
33190;SDS011;19554;42.652;23.364;2022-09-28T08:03:35;19.02;;;9.80;;
33190;SDS011;19554;42.652;23.364;2022-09-28T08:06:02;14.50;;;9.57;;
33190;SDS011;19554;42.652;23.364;2022-09-28T08:08:32;21.05;;;10.00;;
33190;SDS011;19554;42.652;23.364;2022-09-28T08:10:58;17.42;;;8.98;;
33190;SDS011;19554;42.652;23.364;2022-09-28T08:13:23;18.35;;;9.07;;
33190;SDS011;19554;42.652;23.364;2022-09-28T08:15:50;14.18;;;7.75;;
33190;SDS011;19554;42.652;23.364;2022-09-28T08:18:17;17.92;;;8.55;;
33190;SDS011;19554;42.652;23.364;2022-09-28T08:20:43;14.02;;;8.43;;
33190;SDS011;19554;42.652;23.364;2022-09-28T08:23:26;13.27;;;8.25;;
33190;SDS011;19554;42.652;23.364;2022-09-28T08:25:52;15.25;;;8.02;;
33190;SDS011;19554;42.652;23.364;2022-09-28T08:28:18;12.52;;;8.15;;
33190;SDS011;19554;42.652;23.364;2022-09-28T08:30:44;13.05;;;7.53;;
33190;SDS011;19554;42.652;23.364;2022-09-28T08:33:11;13.38;;;6.65;;
33190;SDS011;19554;42.652;23.364;2022-09-28T08:35:37;10.48;;;6.25;;
33190;SDS011;19554;42.652;23.364;2022-09-28T08:38:05;12.63;;;5.63;;
33190;SDS011;19554;42.652;23.364;2022-09-28T08:40:31;12.73;;;6.63;;
33190;SDS011;19554;42.652;23.364;2022-09-28T08:43:03;10.45;;;5.78;;
33190;SDS011;19554;42.652;23.364;2022-09-28T08:45:38;14.45;;;6.03;;
33190;SDS011;19554;42.652;23.364;2022-09-28T08:48:07;8.63;;;5.60;;
33190;SDS011;19554;42.652;23.364;2022-09-28T08:51:01;10.82;;;5.65;;
33190;SDS011;19554;42.652;23.364;2022-09-28T08:53:36;14.90;;;5.22;;
33190;SDS011;19554;42.652;23.364;2022-09-28T08:56:11;9.25;;;5.25;;
33190;SDS011;19554;42.652;23.364;2022-09-28T08:58:43;9.70;;;5.55;;
33190;SDS011;19554;42.652;23.364;2022-09-28T09:01:14;12.75;;;4.50;;
33190;SDS011;19554;42.652;23.364;2022-09-28T09:03:43;13.13;;;4.43;;
33190;SDS011;19554;42.652;23.364;2022-09-28T09:11:55;6.60;;;3.58;;
33190;SDS011;19554;42.652;23.364;2022-09-28T09:17:11;7.22;;;3.80;;
33190;SDS011;19554;42.652;23.364;2022-09-28T09:20:02;12.77;;;4.30;;
33190;SDS011;19554;42.652;23.364;2022-09-28T09:22:51;14.75;;;4.28;;
33190;SDS011;19554;42.652;23.364;2022-09-28T09:25:27;14.77;;;4.63;;
33190;SDS011;19554;42.652;23.364;2022-09-28T09:28:16;9.52;;;3.67;;
33190;SDS011;19554;42.652;23.364;2022-09-28T09:33:50;10.55;;;3.95;;
33190;SDS011;19554;42.652;23.364;2022-09-28T09:39:13;9.60;;;3.70;;
33190;SDS011;19554;42.652;23.364;2022-09-28T09:47:20;10.30;;;3.40;;
33190;SDS011;19554;42.652;23.364;2022-09-28T09:49:54;7.40;;;2.78;;
33190;SDS011;19554;42.652;23.364;2022-09-28T09:52:28;11.35;;;3.70;;
33190;SDS011;19554;42.652;23.364;2022-09-28T09:55:15;6.22;;;3.58;;
33190;SDS011;19554;42.652;23.364;2022-09-28T09:57:51;6.85;;;3.70;;
33190;SDS011;19554;42.652;23.364;2022-09-28T10:00:22;6.05;;;3.28;;
33190;SDS011;19554;42.652;23.364;2022-09-28T10:02:47;9.27;;;3.03;;
33190;SDS011;19554;42.652;23.364;2022-09-28T10:05:24;6.80;;;3.22;;
33190;SDS011;19554;42.652;23.364;2022-09-28T10:08:00;7.22;;;3.78;;
33190;SDS011;19554;42.652;23.364;2022-09-28T10:10:31;7.47;;;3.03;;
33190;SDS011;19554;42.652;23.364;2022-09-28T10:12:59;6.57;;;3.42;;
33190;SDS011;19554;42.652;23.364;2022-09-28T10:15:27;9.35;;;2.80;;
33190;SDS011;19554;42.652;23.364;2022-09-28T10:17:56;8.80;;;2.65;;
33190;SDS011;19554;42.652;23.364;2022-09-28T10:20:25;5.43;;;2.92;;
33190;SDS011;19554;42.652;23.364;2022-09-28T10:22:55;10.57;;;3.00;;
33190;SDS011;19554;42.652;23.364;2022-09-28T10:25:22;7.03;;;2.80;;
33190;SDS011;19554;42.652;23.364;2022-09-28T10:27:48;6.32;;;2.58;;
33190;SDS011;19554;42.652;23.364;2022-09-28T10:32:45;3.25;;;2.20;;
33190;SDS011;19554;42.652;23.364;2022-09-28T10:37:48;4.97;;;2.33;;
33190;SDS011;19554;42.652;23.364;2022-09-28T10:40:24;6.22;;;2.40;;
33190;SDS011;19554;42.652;23.364;2022-09-28T10:43:16;6.80;;;2.03;;
33190;SDS011;19554;42.652;23.364;2022-09-28T10:45:48;5.63;;;1.98;;
33190;SDS011;19554;42.652;23.364;2022-09-28T10:48:24;3.85;;;2.33;;
33190;SDS011;19554;42.652;23.364;2022-09-28T10:51:24;6.22;;;2.38;;
33190;SDS011;19554;42.652;23.364;2022-09-28T10:54:17;8.73;;;2.15;;
33190;SDS011;19554;42.652;23.364;2022-09-28T10:56:42;5.75;;;2.33;;
33190;SDS011;19554;42.652;23.364;2022-09-28T10:59:41;5.13;;;2.42;;
33190;SDS011;19554;42.652;23.364;2022-09-28T11:04:53;4.63;;;1.85;;
33190;SDS011;19554;42.652;23.364;2022-09-28T11:07:27;5.30;;;2.33;;
33190;SDS011;19554;42.652;23.364;2022-09-28T11:09:55;5.90;;;2.17;;
33190;SDS011;19554;42.652;23.364;2022-09-28T11:12:23;4.80;;;2.10;;
33190;SDS011;19554;42.652;23.364;2022-09-28T11:14:57;6.15;;;1.98;;
33190;SDS011;19554;42.652;23.364;2022-09-28T11:23:14;5.93;;;2.00;;
33190;SDS011;19554;42.652;23.364;2022-09-28T11:25:41;4.50;;;2.10;;
33190;SDS011;19554;42.652;23.364;2022-09-28T11:28:12;4.07;;;2.08;;
33190;SDS011;19554;42.652;23.364;2022-09-28T11:30:48;7.53;;;2.20;;
33190;SDS011;19554;42.652;23.364;2022-09-28T11:33:37;3.20;;;1.58;;
33190;SDS011;19554;42.652;23.364;2022-09-28T11:46:29;3.53;;;1.85;;
33190;SDS011;19554;42.652;23.364;2022-09-28T11:55:27;3.15;;;1.63;;
33190;SDS011;19554;42.652;23.364;2022-09-28T11:58:11;2.83;;;1.73;;
33190;SDS011;19554;42.652;23.364;2022-09-28T12:01:11;5.00;;;2.17;;
33190;SDS011;19554;42.652;23.364;2022-09-28T12:03:41;3.95;;;1.80;;
33190;SDS011;19554;42.652;23.364;2022-09-28T12:06:13;3.00;;;1.92;;
33190;SDS011;19554;42.652;23.364;2022-09-28T12:08:44;6.38;;;2.10;;
33190;SDS011;19554;42.652;23.364;2022-09-28T12:11:22;5.70;;;2.00;;
33190;SDS011;19554;42.652;23.364;2022-09-28T12:14:00;5.63;;;1.65;;
33190;SDS011;19554;42.652;23.364;2022-09-28T12:16:30;4.30;;;1.90;;
33190;SDS011;19554;42.652;23.364;2022-09-28T12:19:05;6.97;;;2.30;;
33190;SDS011;19554;42.652;23.364;2022-09-28T12:21:42;4.00;;;1.88;;
33190;SDS011;19554;42.652;23.364;2022-09-28T12:24:17;4.30;;;1.60;;
33190;SDS011;19554;42.652;23.364;2022-09-28T12:26:55;3.97;;;1.90;;
33190;SDS011;19554;42.652;23.364;2022-09-28T12:29:45;5.07;;;2.08;;
33190;SDS011;19554;42.652;23.364;2022-09-28T12:35:09;6.60;;;2.33;;
33190;SDS011;19554;42.652;23.364;2022-09-28T12:48:20;4.03;;;1.80;;
33190;SDS011;19554;42.652;23.364;2022-09-28T12:51:25;4.50;;;1.70;;
33190;SDS011;19554;42.652;23.364;2022-09-28T13:10:51;5.20;;;1.88;;
33190;SDS011;19554;42.652;23.364;2022-09-28T13:18:28;4.57;;;1.85;;
33190;SDS011;19554;42.652;23.364;2022-09-28T13:21:02;4.78;;;2.38;;
33190;SDS011;19554;42.652;23.364;2022-09-28T13:23:33;6.28;;;1.70;;
33190;SDS011;19554;42.652;23.364;2022-09-28T13:28:35;5.97;;;2.90;;
33190;SDS011;19554;42.652;23.364;2022-09-28T13:31:01;2.80;;;1.90;;
33190;SDS011;19554;42.652;23.364;2022-09-28T13:33:32;2.15;;;1.63;;
33190;SDS011;19554;42.652;23.364;2022-09-28T13:36:50;4.93;;;2.13;;
33190;SDS011;19554;42.652;23.364;2022-09-28T13:38:49;5.07;;;2.00;;
33190;SDS011;19554;42.652;23.364;2022-09-28T13:41:34;3.47;;;1.98;;
33190;SDS011;19554;42.652;23.364;2022-09-28T13:52:12;5.05;;;1.88;;
33190;SDS011;19554;42.652;23.364;2022-09-28T13:57:29;4.28;;;1.85;;
33190;SDS011;19554;42.652;23.364;2022-09-28T14:00:11;8.40;;;2.40;;
33190;SDS011;19554;42.652;23.364;2022-09-28T14:13:10;6.38;;;1.92;;
33190;SDS011;19554;42.652;23.364;2022-09-28T14:29:34;5.97;;;2.30;;
33190;SDS011;19554;42.652;23.364;2022-09-28T14:31:52;4.25;;;2.05;;
33190;SDS011;19554;42.652;23.364;2022-09-28T14:34:27;6.22;;;2.08;;
33190;SDS011;19554;42.652;23.364;2022-09-28T14:36:56;3.85;;;1.98;;
33190;SDS011;19554;42.652;23.364;2022-09-28T14:39:44;3.58;;;1.90;;
33190;SDS011;19554;42.652;23.364;2022-09-28T14:42:29;4.22;;;1.45;;
33190;SDS011;19554;42.652;23.364;2022-09-28T14:47:33;5.93;;;1.77;;
33190;SDS011;19554;42.652;23.364;2022-09-28T14:55:46;4.82;;;2.25;;
33190;SDS011;19554;42.652;23.364;2022-09-28T14:58:24;7.35;;;2.22;;
33190;SDS011;19554;42.652;23.364;2022-09-28T15:00:57;5.03;;;2.25;;
33190;SDS011;19554;42.652;23.364;2022-09-28T15:03:27;9.13;;;2.33;;
33190;SDS011;19554;42.652;23.364;2022-09-28T15:05:55;4.60;;;2.10;;
33190;SDS011;19554;42.652;23.364;2022-09-28T15:08:20;3.20;;;2.38;;
33190;SDS011;19554;42.652;23.364;2022-09-28T15:10:47;6.07;;;2.58;;
33190;SDS011;19554;42.652;23.364;2022-09-28T15:15:50;6.28;;;1.90;;
33190;SDS011;19554;42.652;23.364;2022-09-28T15:18:37;4.28;;;1.83;;
33190;SDS011;19554;42.652;23.364;2022-09-28T15:21:14;5.10;;;2.00;;
33190;SDS011;19554;42.652;23.364;2022-09-28T15:23:41;7.25;;;2.15;;
33190;SDS011;19554;42.652;23.364;2022-09-28T15:26:24;6.63;;;1.98;;
33190;SDS011;19554;42.652;23.364;2022-09-28T15:28:55;5.28;;;2.15;;
33190;SDS011;19554;42.652;23.364;2022-09-28T15:31:22;3.80;;;1.92;;
33190;SDS011;19554;42.652;23.364;2022-09-28T15:33:50;9.85;;;1.83;;
33190;SDS011;19554;42.652;23.364;2022-09-28T15:36:41;4.25;;;1.80;;
33190;SDS011;19554;42.652;23.364;2022-09-28T15:42:12;8.18;;;2.53;;
33190;SDS011;19554;42.652;23.364;2022-09-28T15:44:39;5.90;;;1.90;;
33190;SDS011;19554;42.652;23.364;2022-09-28T15:47:12;2.80;;;1.33;;
33190;SDS011;19554;42.652;23.364;2022-09-28T15:49:45;10.13;;;2.10;;
33190;SDS011;19554;42.652;23.364;2022-09-28T15:52:24;6.55;;;2.25;;
33190;SDS011;19554;42.652;23.364;2022-09-28T15:54:52;5.22;;;2.05;;
33190;SDS011;19554;42.652;23.364;2022-09-28T15:59:57;6.95;;;1.10;;
33190;SDS011;19554;42.652;23.364;2022-09-28T16:02:23;7.35;;;2.42;;
33190;SDS011;19554;42.652;23.364;2022-09-28T16:04:54;9.77;;;1.77;;
33190;SDS011;19554;42.652;23.364;2022-09-28T16:07:27;2.95;;;1.80;;
33190;SDS011;19554;42.652;23.364;2022-09-28T16:15:42;4.25;;;1.65;;
33190;SDS011;19554;42.652;23.364;2022-09-28T16:20:45;5.88;;;2.15;;
33190;SDS011;19554;42.652;23.364;2022-09-28T16:28:23;6.57;;;3.13;;
33190;SDS011;19554;42.652;23.364;2022-09-28T16:34:00;3.42;;;2.10;;
33190;SDS011;19554;42.652;23.364;2022-09-28T16:36:54;3.88;;;2.58;;
33190;SDS011;19554;42.652;23.364;2022-09-28T16:39:19;6.10;;;3.00;;
33190;SDS011;19554;42.652;23.364;2022-09-28T16:41:47;3.70;;;1.50;;
33190;SDS011;19554;42.652;23.364;2022-09-28T16:44:18;7.65;;;1.50;;
33190;SDS011;19554;42.652;23.364;2022-09-28T16:46:47;4.05;;;1.77;;
33190;SDS011;19554;42.652;23.364;2022-09-28T16:49:14;4.18;;;1.70;;
33190;SDS011;19554;42.652;23.364;2022-09-28T16:51:46;3.03;;;1.67;;
33190;SDS011;19554;42.652;23.364;2022-09-28T16:54:21;2.25;;;1.50;;
33190;SDS011;19554;42.652;23.364;2022-09-28T16:57:08;2.38;;;1.30;;
33190;SDS011;19554;42.652;23.364;2022-09-28T16:59:36;4.57;;;1.45;;
33190;SDS011;19554;42.652;23.364;2022-09-28T17:02:14;4.70;;;1.33;;
33190;SDS011;19554;42.652;23.364;2022-09-28T17:04:41;7.35;;;1.70;;
33190;SDS011;19554;42.652;23.364;2022-09-28T17:07:07;17.25;;;3.08;;
33190;SDS011;19554;42.652;23.364;2022-09-28T17:09:36;6.03;;;3.00;;
33190;SDS011;19554;42.652;23.364;2022-09-28T17:12:01;14.52;;;3.67;;
33190;SDS011;19554;42.652;23.364;2022-09-28T17:14:27;8.40;;;3.03;;
33190;SDS011;19554;42.652;23.364;2022-09-28T17:16:52;9.82;;;3.25;;
33190;SDS011;19554;42.652;23.364;2022-09-28T17:19:21;10.23;;;2.92;;
33190;SDS011;19554;42.652;23.364;2022-09-28T17:21:48;10.55;;;4.50;;
33190;SDS011;19554;42.652;23.364;2022-09-28T17:24:15;12.25;;;5.50;;
33190;SDS011;19554;42.652;23.364;2022-09-28T17:26:41;9.85;;;5.50;;
33190;SDS011;19554;42.652;23.364;2022-09-28T17:29:09;33.05;;;10.63;;
33190;SDS011;19554;42.652;23.364;2022-09-28T17:31:38;24.95;;;9.27;;
33190;SDS011;19554;42.652;23.364;2022-09-28T17:34:07;6.45;;;2.58;;
33190;SDS011;19554;42.652;23.364;2022-09-28T17:36:34;24.38;;;4.78;;
33190;SDS011;19554;42.652;23.364;2022-09-28T17:38:59;15.98;;;4.65;;
33190;SDS011;19554;42.652;23.364;2022-09-28T17:41:25;24.52;;;4.55;;
33190;SDS011;19554;42.652;23.364;2022-09-28T17:43:50;13.68;;;3.58;;
33190;SDS011;19554;42.652;23.364;2022-09-28T17:46:21;18.80;;;4.03;;
33190;SDS011;19554;42.652;23.364;2022-09-28T17:48:51;8.60;;;3.65;;
33190;SDS011;19554;42.652;23.364;2022-09-28T17:51:17;8.65;;;2.60;;
33190;SDS011;19554;42.652;23.364;2022-09-28T17:53:42;7.70;;;2.25;;
33190;SDS011;19554;42.652;23.364;2022-09-28T17:56:07;12.65;;;2.33;;
33190;SDS011;19554;42.652;23.364;2022-09-28T17:58:34;7.35;;;1.80;;
33190;SDS011;19554;42.652;23.364;2022-09-28T18:00:59;6.45;;;2.45;;
33190;SDS011;19554;42.652;23.364;2022-09-28T18:03:25;8.90;;;2.30;;